Decoded Metar for MDST (SANTIAGO in DOMINICAN REPUBLIC) (IATA:STI) | Meteo·Mobile Aviation Weather
aviador You're here:

MDST Decoded Metar

SANTIAGO in DOMINICAN REPUBLIC
Report Time2018-11-21 02:00:00
UTC Time2018-11-21 02:08:39
Flight Rules vfr VFR
Wind150° at 04 kt
W.Decomp.*RWY 11: 2.6 kt HW 3.1 kt RCW
W.Rank150° ranks 7
Current wind is below 150° avg. (6.6)
Visibility9999 m
Phenomena:N/A
Clouds:Few 018 Hf
Expected CloudBase > 800 ft AGL from Temp-Dew spread
CeilingNone
Temp25°C (ISA +11)
Dew Point23°C (89% RH)
QNH1017 hPa
Density Alt2,093 ft
Elevation567 ft
Report Wrong Elevation
Raw Report
METAR MDST 210200Z 15004KT 9999 FEW018 25/23 Q1017=

Extra information for MDST:More info

Metar Taf Metar & Taf Last 4 Metars F.Rules Stats Wind Profile Meteogram Temp Stats Airport Information Weather charts Add Link Nearby VenuesMetar ALERT Operation Metar Decoded Social comments